Terminal Aerodrome Forecast
Issued by NWS

Home | Current Version | Previous Version | Text Only | Print | Product List | Glossary On
Versions: 1 2 3 4 5 6 7 8 9 10 11 12 13 14 15 16 17 18 19 20 21
491
FTUS41 KPBZ 280645 AAA
TAFDUJ
TAF AMD
KDUJ 280645Z 2807/2906 27007KT P6SM BKN008 OVC015
     FM281300 25006KT P6SM SCT008 SCT200
     FM281700 23005KT P6SM BKN140
     FM290000 17003KT P6SM BKN120
     FM290200 15004KT P6SM VCSH OVC120=

USA.gov is the U.S. government's official web portal to all federal, state and local government web resources and services.